Time;durP1;ratioP1;P1;durP2;ratioP2;P2;SDS_P1;SDS_P2;PMS_P1;PMS_P2;Temp;Humidity;BMP_temperature;BMP_pressure;BME280_temperature;BME280_humidity;BME280_pressure;Samples;Min_cycle;Max_cycle;Signal;HPM_P1;HPM_P2
2023/01/10 00:00:24;;;;;;;24.30;14.30;;;3.30;99.90;;;;;;4957479;28;22380;-61
2023/01/10 00:02:51;;;;;;;30.87;17.50;;;3.40;99.90;;;;;;4948012;28;20043;-62
2023/01/10 00:05:18;;;;;;;26.35;15.95;;;3.40;99.90;;;;;;4954807;28;20047;-66
2023/01/10 00:07:45;;;;;;;27.40;17.20;;;3.40;99.90;;;;;;4961745;28;20068;-68
2023/01/10 00:10:13;;;;;;;29.85;16.23;;;3.40;99.90;;;;;;4948871;28;20325;-62
2023/01/10 00:15:25;;;;;;;34.60;18.60;;;3.40;99.90;;;;;;4956430;28;20090;-63
2023/01/10 00:17:52;;;;;;;28.70;17.85;;;3.40;99.90;;;;;;4956782;28;20058;-62
2023/01/10 00:20:19;;;;;;;28.75;17.35;;;3.40;99.90;;;;;;4952345;28;20137;-62
2023/01/10 00:22:48;;;;;;;26.88;17.75;;;3.40;99.90;;;;;;4957996;28;20145;-65
2023/01/10 00:25:15;;;;;;;31.35;18.42;;;3.50;99.90;;;;;;4952442;28;20405;-67
2023/01/10 00:27:44;;;;;;;30.45;18.92;;;3.50;99.90;;;;;;4954371;28;20299;-62
2023/01/10 00:30:14;;;;;;;28.05;18.77;;;3.40;99.90;;;;;;4959649;28;20047;-66
2023/01/10 00:32:43;;;;;;;32.03;18.98;;;3.50;99.90;;;;;;4959345;28;20113;-68
2023/01/10 00:35:11;;;;;;;29.55;19.13;;;3.50;99.90;;;;;;4954936;28;20533;-70
2023/01/10 00:37:38;;;;;;;31.33;17.75;;;3.50;99.90;;;;;;4958842;28;20058;-62
2023/01/10 00:40:10;;;;;;;29.05;17.92;;;3.50;99.90;;;;;;4957382;28;20054;-62
2023/01/10 00:45:24;;;;;;;34.72;18.38;;;3.50;99.90;;;;;;4952486;28;20149;-63
2023/01/10 00:47:51;;;;;;;32.83;21.65;;;3.50;99.90;;;;;;4956702;28;20055;-65
2023/01/10 00:50:18;;;;;;;31.33;18.45;;;3.60;99.90;;;;;;4955466;28;20073;-62
2023/01/10 00:52:45;;;;;;;31.25;19.25;;;3.50;99.90;;;;;;4956067;28;20126;-65
2023/01/10 00:55:11;;;;;;;29.95;19.15;;;3.50;99.90;;;;;;4956416;28;20222;-62
2023/01/10 00:57:38;;;;;;;31.80;19.25;;;3.60;99.90;;;;;;4949566;28;20771;-63
2023/01/10 01:00:08;;;;;;;28.80;18.90;;;3.60;99.90;;;;;;4957540;28;20051;-62
2023/01/10 01:02:35;;;;;;;29.38;18.10;;;3.60;99.90;;;;;;4955101;28;20058;-67
2023/01/10 01:05:02;;;;;;;24.48;18.00;;;3.60;99.90;;;;;;4954371;28;20050;-63
2023/01/10 01:07:29;;;;;;;32.88;18.35;;;3.60;99.90;;;;;;4951983;28;20070;-62
2023/01/10 01:12:42;;;;;;;29.73;19.30;;;3.60;99.90;;;;;;4951427;28;20440;-69
2023/01/10 01:15:09;;;;;;;26.65;17.50;;;3.60;99.90;;;;;;4956083;28;20047;-68
2023/01/10 01:17:36;;;;;;;28.77;18.25;;;3.60;99.90;;;;;;4956585;28;20055;-63
2023/01/10 01:20:03;;;;;;;28.80;17.52;;;3.60;99.90;;;;;;4952402;28;20051;-65
2023/01/10 01:22:30;;;;;;;28.15;16.55;;;3.70;99.90;;;;;;4958380;28;20074;-66
2023/01/10 01:24:57;;;;;;;29.95;18.50;;;3.70;99.90;;;;;;4949007;28;20412;-63
2023/01/10 01:27:24;;;;;;;24.67;16.85;;;3.70;99.90;;;;;;4955157;28;20078;-63
2023/01/10 01:29:51;;;;;;;23.50;15.77;;;3.70;99.90;;;;;;4950977;28;20133;-65
2023/01/10 01:32:18;;;;;;;26.23;15.50;;;3.70;99.90;;;;;;4959131;28;20102;-63
2023/01/10 01:34:45;;;;;;;25.40;15.13;;;3.70;99.90;;;;;;4958635;28;20043;-64
2023/01/10 01:37:11;;;;;;;24.55;16.17;;;3.70;99.90;;;;;;4957173;28;20061;-64
2023/01/10 01:39:38;;;;;;;26.50;15.70;;;3.70;99.90;;;;;;4955719;28;20043;-64
2023/01/10 01:42:12;;;;;;;24.55;16.23;;;3.70;99.90;;;;;;4957688;28;20544;-64
2023/01/10 01:44:41;;;;;;;25.52;16.65;;;3.80;99.90;;;;;;4951159;28;20047;-68
2023/01/10 01:47:21;;;;;;;30.55;16.55;;;3.70;99.90;;;;;;4952012;28;20078;-62
2023/01/10 01:49:48;;;;;;;;;;;3.80;99.90;;;;;;4946884;28;20134;-63
2023/01/10 01:52:25;;;;;;;22.98;16.10;;;3.80;99.90;;;;;;4956061;28;19923;-63
2023/01/10 01:54:57;;;;;;;24.45;15.88;;;3.70;99.90;;;;;;4957755;28;20168;-64
2023/01/10 01:57:27;;;;;;;28.02;16.98;;;3.80;99.90;;;;;;4954045;28;20252;-66
2023/01/10 01:59:54;;;;;;;27.63;16.38;;;3.80;99.90;;;;;;4956481;28;20152;-70
2023/01/10 02:02:35;;;;;;;28.48;15.23;;;3.80;99.90;;;;;;4955350;28;20149;-67
2023/01/10 02:05:11;;;;;;;23.67;15.52;;;3.80;99.90;;;;;;4951080;28;20051;-63
2023/01/10 02:07:43;;;;;;;28.75;18.23;;;3.80;99.90;;;;;;4953239;28;20575;-73
2023/01/10 02:10:36;;;;;;;25.35;17.45;;;3.80;99.90;;;;;;4954611;28;20053;-62
2023/01/10 02:13:06;;;;;;;26.85;18.42;;;3.80;99.90;;;;;;4964592;28;20365;-65
2023/01/10 02:15:33;;;;;;;31.40;18.67;;;3.80;99.90;;;;;;4953721;28;20051;-63
2023/01/10 02:18:01;;;;;;;25.95;17.33;;;3.90;99.90;;;;;;4951301;28;20289;-65
2023/01/10 02:20:37;;;;;;;30.25;17.17;;;3.90;99.90;;;;;;4956188;28;20350;-64
2023/01/10 02:23:25;;;;;;;23.88;15.55;;;3.90;99.90;;;;;;4955376;28;20113;-65
2023/01/10 02:26:04;;;;;;;33.67;17.25;;;3.90;99.90;;;;;;4951744;28;20085;-65
2023/01/10 02:28:49;;;;;;;29.27;16.88;;;3.90;99.90;;;;;;4952898;28;20110;-63
2023/01/10 02:31:29;;;;;;;30.50;17.85;;;3.90;99.90;;;;;;4953699;28;20347;-62
2023/01/10 02:34:26;;;;;;;26.25;16.52;;;3.90;99.90;;;;;;4941438;28;20102;-69
2023/01/10 02:37:04;;;;;;;29.90;17.45;;;3.90;99.90;;;;;;4954267;28;20165;-63
2023/01/10 02:39:43;;;;;;;25.10;16.08;;;4.00;99.90;;;;;;4953076;28;20047;-63
2023/01/10 02:42:21;;;;;;;28.02;17.30;;;4.00;99.90;;;;;;4949146;28;20065;-63
2023/01/10 02:44:53;;;;;;;29.58;18.48;;;4.00;99.90;;;;;;4956365;28;20113;-62
2023/01/10 02:47:20;;;;;;;28.27;17.95;;;4.00;99.90;;;;;;4951043;28;20054;-62
2023/01/10 02:49:49;;;;;;;27.08;17.02;;;4.00;99.90;;;;;;4946174;28;20402;-62
2023/01/10 02:52:29;;;;;;;30.25;17.67;;;4.10;99.90;;;;;;4954527;28;20051;-62
2023/01/10 02:55:00;;;;;;;32.35;16.80;;;4.10;99.90;;;;;;4955943;28;20106;-65
2023/01/10 02:57:46;;;;;;;26.85;17.02;;;4.10;99.90;;;;;;4952182;28;20074;-64
2023/01/10 03:00:31;;;;;;;24.30;16.55;;;4.10;99.90;;;;;;4950820;28;20047;-67
2023/01/10 03:03:32;;;;;;;26.05;15.75;;;4.10;99.90;;;;;;4953235;28;20043;-67
2023/01/10 03:06:26;;;;;;;30.63;17.48;;;4.10;99.90;;;;;;4922986;28;22608;-62
2023/01/10 03:09:03;;;;;;;27.85;16.67;;;4.20;99.90;;;;;;4954132;28;20456;-62
2023/01/10 03:11:40;;;;;;;23.45;16.70;;;4.10;99.90;;;;;;4959829;28;20413;-62
2023/01/10 03:14:28;;;;;;;29.30;17.02;;;4.20;99.90;;;;;;4953047;28;20054;-62
2023/01/10 03:17:01;;;;;;;28.50;18.58;;;4.20;99.90;;;;;;4956044;28;20051;-62
2023/01/10 03:19:55;;;;;;;25.65;16.55;;;4.20;99.90;;;;;;4957166;28;20047;-64
2023/01/10 03:22:25;;;;;;;27.33;16.98;;;4.20;99.90;;;;;;4943026;28;20134;-64
2023/01/10 03:24:54;;;;;;;30.53;18.23;;;4.20;99.90;;;;;;4953209;28;20141;-62
2023/01/10 03:27:50;;;;;;;33.22;19.42;;;4.20;99.90;;;;;;4951799;28;20549;-66
2023/01/10 03:30:40;;;;;;;29.15;17.67;;;4.30;99.90;;;;;;4953474;28;20055;-63
2023/01/10 03:33:10;;;;;;;33.20;19.88;;;4.30;99.90;;;;;;4951651;28;20062;-63
2023/01/10 03:35:42;;;;;;;39.25;22.88;;;4.30;99.90;;;;;;4956139;28;20138;-62
2023/01/10 03:38:19;;;;;;;37.17;23.50;;;4.40;99.90;;;;;;4950125;28;20113;-64
2023/01/10 03:41:03;;;;;;;47.20;26.77;;;4.50;99.90;;;;;;4957419;28;20134;-63
2023/01/10 03:46:36;;;;;;;54.88;28.73;;;4.70;99.90;;;;;;4952884;28;20094;-62
2023/01/10 03:49:05;;;;;;;51.60;25.73;;;4.70;99.90;;;;;;4956528;28;20417;-66
2023/01/10 03:51:33;;;;;;;48.78;25.98;;;4.70;99.90;;;;;;4953462;28;20061;-64
2023/01/10 03:54:01;;;;;;;49.22;25.13;;;4.70;99.90;;;;;;4956170;28;20089;-64
2023/01/10 03:56:28;;;;;;;40.22;25.45;;;4.70;99.90;;;;;;4955350;28;20047;-63
2023/01/10 03:58:55;;;;;;;41.80;23.23;;;4.70;99.90;;;;;;4957237;28;20419;-63
2023/01/10 04:01:22;;;;;;;41.97;25.73;;;4.70;99.90;;;;;;4947279;28;20154;-62
2023/01/10 04:03:49;;;;;;;34.92;22.30;;;4.70;99.90;;;;;;4957377;28;20116;-65
2023/01/10 04:06:16;;;;;;;30.48;19.10;;;4.70;99.90;;;;;;4955645;28;20039;-66
2023/01/10 04:08:43;;;;;;;28.52;17.73;;;4.70;99.90;;;;;;4956360;28;20049;-62
2023/01/10 04:11:10;;;;;;;18.52;12.50;;;4.70;99.90;;;;;;4956468;28;20089;-67
2023/01/10 04:13:40;;;;;;;18.45;11.85;;;4.70;99.90;;;;;;4956084;28;20050;-69
2023/01/10 04:16:08;;;;;;;17.08;9.73;;;4.70;99.90;;;;;;4953606;28;20398;-62
2023/01/10 04:18:35;;;;;;;16.30;9.85;;;4.70;99.90;;;;;;4954933;28;20051;-65
2023/01/10 04:21:02;;;;;;;12.57;8.35;;;4.70;99.90;;;;;;4955614;28;20676;-67
2023/01/10 04:23:28;;;;;;;12.18;6.35;;;4.70;99.90;;;;;;4955053;28;20043;-63
2023/01/10 04:25:55;;;;;;;9.88;5.30;;;4.60;99.90;;;;;;4948937;28;20193;-62
2023/01/10 04:28:22;;;;;;;7.15;4.97;;;4.60;99.90;;;;;;4955522;28;20463;-63
2023/01/10 04:30:50;;;;;;;6.35;3.95;;;4.60;99.90;;;;;;4955232;28;20134;-64
2023/01/10 04:33:17;;;;;;;4.47;3.35;;;4.60;99.90;;;;;;4957386;28;20853;-66
2023/01/10 04:35:49;;;;;;;3.95;3.15;;;4.50;99.90;;;;;;4952988;28;20059;-64
2023/01/10 04:38:16;;;;;;;2.75;2.17;;;4.50;99.90;;;;;;4953410;28;20038;-63
2023/01/10 04:40:43;;;;;;;6.20;2.17;;;4.50;99.90;;;;;;4950468;28;20054;-68
2023/01/10 04:43:10;;;;;;;6.10;2.72;;;4.50;99.90;;;;;;4951848;28;20427;-63
2023/01/10 04:45:37;;;;;;;7.18;3.22;;;4.50;99.90;;;;;;4956807;28;20138;-68
2023/01/10 04:48:05;;;;;;;3.28;2.72;;;4.50;99.90;;;;;;4949224;28;20062;-62
2023/01/10 04:50:32;;;;;;;4.68;2.95;;;4.40;99.90;;;;;;4958166;28;20113;-67
2023/01/10 04:52:59;;;;;;;2.08;1.90;;;4.40;99.90;;;;;;4951882;28;20047;-63
2023/01/10 04:55:26;;;;;;;3.42;2.00;;;4.40;99.90;;;;;;4960269;28;20082;-65
2023/01/10 04:57:53;;;;;;;2.80;2.22;;;4.30;99.90;;;;;;4946353;28;20047;-62
2023/01/10 05:00:20;;;;;;;7.47;2.60;;;4.30;99.90;;;;;;4952966;28;20053;-62
2023/01/10 05:02:46;;;;;;;4.32;1.40;;;4.20;99.90;;;;;;4953810;28;20065;-67
2023/01/10 05:05:14;;;;;;;3.63;1.85;;;4.20;99.90;;;;;;4959027;28;20055;-63
2023/01/10 05:07:44;;;;;;;2.03;1.30;;;4.20;99.90;;;;;;4952299;28;20441;-66
2023/01/10 05:10:11;;;;;;;3.75;1.90;;;4.10;99.90;;;;;;4958447;28;20046;-62
2023/01/10 05:12:38;;;;;;;7.25;1.42;;;4.10;99.90;;;;;;4964757;28;20070;-67
2023/01/10 05:15:05;;;;;;;4.53;1.33;;;4.10;99.90;;;;;;4954662;28;20043;-71
2023/01/10 05:17:32;;;;;;;7.20;1.90;;;4.10;99.90;;;;;;4953558;28;20580;-63
2023/01/10 05:19:59;;;;;;;6.35;2.50;;;4.10;99.90;;;;;;4974983;28;20635;-66
2023/01/10 05:22:25;;;;;;;5.63;2.17;;;4.10;99.90;;;;;;4951577;28;20162;-63
2023/01/10 05:24:52;;;;;;;1.98;1.70;;;4.00;99.90;;;;;;4954981;28;20063;-62
2023/01/10 05:27:20;;;;;;;1.83;1.23;;;4.00;99.90;;;;;;4955947;28;20145;-68
2023/01/10 05:29:47;;;;;;;6.55;2.15;;;4.00;99.90;;;;;;4951149;28;20427;-64
2023/01/10 05:32:14;;;;;;;3.13;1.67;;;4.00;99.90;;;;;;4956060;28;20053;-63
2023/01/10 05:34:41;;;;;;;3.70;2.00;;;4.00;99.90;;;;;;4956526;28;20075;-64
2023/01/10 05:37:08;;;;;;;1.88;1.77;;;4.10;99.90;;;;;;4954161;28;20043;-63
2023/01/10 05:39:35;;;;;;;3.83;2.80;;;4.10;99.90;;;;;;4955937;28;20581;-64
2023/01/10 05:42:02;;;;;;;6.30;2.70;;;4.10;99.90;;;;;;4955582;28;20105;-64
2023/01/10 05:44:29;;;;;;;5.88;2.20;;;4.20;99.90;;;;;;4945222;28;20157;-63
2023/01/10 05:46:56;;;;;;;5.82;2.08;;;4.20;99.90;;;;;;4951564;28;20426;-64
2023/01/10 05:49:23;;;;;;;2.92;1.65;;;4.20;99.90;;;;;;4951948;28;20062;-67
2023/01/10 05:51:50;;;;;;;6.72;2.10;;;4.20;99.90;;;;;;4951397;28;20051;-65
2023/01/10 05:54:17;;;;;;;3.65;2.22;;;4.20;99.90;;;;;;4953195;28;20046;-63
2023/01/10 05:56:44;;;;;;;10.88;2.30;;;4.30;99.90;;;;;;4954703;28;20055;-62
2023/01/10 05:59:11;;;;;;;4.75;1.85;;;4.30;99.90;;;;;;4958580;28;20057;-66
2023/01/10 06:01:53;;;;;;;4.57;1.65;;;4.30;99.90;;;;;;4942983;28;20150;-65
2023/01/10 06:04:20;;;;;;;4.32;1.98;;;4.30;99.90;;;;;;4952121;28;20385;-65
2023/01/10 06:06:47;;;;;;;4.93;2.67;;;4.30;99.90;;;;;;4953470;28;20146;-66
2023/01/10 06:09:14;;;;;;;2.78;1.88;;;4.30;99.90;;;;;;4953092;28;20057;-66
2023/01/10 06:11:40;;;;;;;2.92;1.77;;;4.30;99.90;;;;;;4947081;28;20054;-66
2023/01/10 06:14:07;;;;;;;3.28;1.60;;;4.30;99.90;;;;;;4952705;28;20654;-63
2023/01/10 06:16:34;;;;;;;8.48;2.80;;;4.30;99.90;;;;;;4951098;28;20143;-63
2023/01/10 06:19:01;;;;;;;5.07;2.60;;;4.30;99.90;;;;;;4945199;28;20061;-62
2023/01/10 06:21:28;;;;;;;5.22;2.45;;;4.30;99.90;;;;;;4952132;28;20072;-67
2023/01/10 06:23:55;;;;;;;3.40;2.35;;;4.30;99.90;;;;;;4953027;28;20448;-63
2023/01/10 06:26:22;;;;;;;6.93;2.40;;;4.30;99.90;;;;;;4949750;28;20492;-63
2023/01/10 06:28:49;;;;;;;5.18;2.88;;;4.40;99.90;;;;;;4953733;28;20047;-63
2023/01/10 06:31:15;;;;;;;5.03;3.45;;;4.30;99.90;;;;;;4951993;28;20154;-72
2023/01/10 06:33:43;;;;;;;7.10;2.90;;;4.30;99.90;;;;;;4947218;28;20078;-65
2023/01/10 06:36:10;;;;;;;9.07;3.05;;;4.40;99.90;;;;;;4948534;28;20153;-63
2023/01/10 06:38:37;;;;;;;9.80;3.47;;;4.40;99.90;;;;;;4949025;28;20054;-67
2023/01/10 06:41:11;;;;;;;7.38;3.85;;;4.40;99.90;;;;;;4956990;28;20054;-69
2023/01/10 06:43:46;;;;;;;10.52;4.57;;;4.40;99.90;;;;;;4956781;28;20085;-68
2023/01/10 06:46:15;;;;;;;15.82;8.75;;;4.40;99.90;;;;;;4954785;28;20047;-65
2023/01/10 06:48:44;;;;;;;15.17;6.83;;;4.40;99.90;;;;;;4948212;28;20405;-63
2023/01/10 06:51:15;;;;;;;16.42;10.15;;;4.40;99.90;;;;;;4952677;28;20436;-63
2023/01/10 06:53:45;;;;;;;18.02;8.85;;;4.40;99.90;;;;;;4954802;28;20461;-63
2023/01/10 06:56:12;;;;;;;31.15;20.48;;;4.50;99.90;;;;;;4958202;28;20051;-64
2023/01/10 06:58:39;;;;;;;50.70;29.10;;;4.40;99.90;;;;;;4964276;28;20134;-63
2023/01/10 07:01:12;;;;;;;43.05;27.52;;;4.50;99.90;;;;;;4953199;28;20051;-66
2023/01/10 07:03:39;;;;;;;14.63;6.53;;;4.50;99.90;;;;;;4952885;28;20154;-65
2023/01/10 07:06:10;;;;;;;15.40;8.35;;;4.50;99.90;;;;;;4956818;28;20086;-64
2023/01/10 07:08:42;;;;;;;20.80;10.95;;;4.50;99.90;;;;;;4958618;28;20224;-66
2023/01/10 07:11:10;;;;;;;15.88;9.93;;;4.50;99.90;;;;;;4955730;28;20139;-64
2023/01/10 07:13:37;;;;;;;13.30;9.07;;;4.50;99.90;;;;;;4954282;28;20479;-66
2023/01/10 07:16:06;;;;;;;12.10;9.60;;;4.50;99.90;;;;;;4952647;28;20339;-63
2023/01/10 07:18:35;;;;;;;7.75;5.47;;;4.50;99.90;;;;;;4954444;28;20055;-65
2023/01/10 07:21:03;;;;;;;8.73;4.60;;;4.60;99.90;;;;;;4954693;28;20107;-64
2023/01/10 07:23:30;;;;;;;9.52;5.00;;;4.60;99.90;;;;;;4953087;28;20146;-64
2023/01/10 07:26:01;;;;;;;13.93;5.90;;;4.60;99.90;;;;;;4957242;28;20488;-65
2023/01/10 07:28:28;;;;;;;12.40;5.75;;;4.60;99.90;;;;;;4954651;28;20065;-63
2023/01/10 07:30:58;;;;;;;6.60;4.93;;;4.60;99.90;;;;;;4959438;28;20061;-63
2023/01/10 07:33:25;;;;;;;13.57;6.25;;;4.70;99.90;;;;;;4956897;28;20372;-64
2023/01/10 07:35:52;;;;;;;12.35;5.00;;;4.70;99.90;;;;;;4954278;28;20053;-67
2023/01/10 07:38:19;;;;;;;9.43;6.55;;;4.70;99.90;;;;;;4956719;28;20073;-63
2023/01/10 07:40:45;;;;;;;6.85;5.40;;;4.70;99.90;;;;;;4952533;28;20145;-65
2023/01/10 07:43:12;;;;;;;19.98;7.88;;;4.70;99.90;;;;;;4954592;28;20134;-66
2023/01/10 07:45:39;;;;;;;15.30;7.28;;;4.80;99.90;;;;;;4955045;28;20063;-64
2023/01/10 07:48:06;;;;;;;13.43;6.40;;;4.80;99.90;;;;;;4957825;28;20046;-65
2023/01/10 07:50:34;;;;;;;12.80;7.32;;;4.80;99.90;;;;;;4957303;28;20164;-66
2023/01/10 07:53:03;;;;;;;9.63;6.00;;;4.80;99.90;;;;;;4950448;28;20050;-65
2023/01/10 07:55:33;;;;;;;14.32;7.30;;;4.80;99.90;;;;;;4958811;28;20047;-63
2023/01/10 07:58:00;;;;;;;9.35;7.13;;;4.80;99.90;;;;;;4947800;28;20071;-66
2023/01/10 08:00:27;;;;;;;16.70;8.38;;;4.90;99.90;;;;;;4955550;28;20047;-62
2023/01/10 08:02:55;;;;;;;13.20;6.43;;;4.90;99.90;;;;;;4957299;28;20075;-62
2023/01/10 08:05:22;;;;;;;13.40;6.30;;;4.90;99.90;;;;;;4957894;28;20043;-62
2023/01/10 08:07:49;;;;;;;14.52;6.90;;;4.90;99.90;;;;;;4950285;28;20160;-64
2023/01/10 08:10:16;;;;;;;12.93;5.28;;;5.00;99.90;;;;;;4955995;28;20047;-64
2023/01/10 08:12:43;;;;;;;11.30;6.65;;;5.00;99.90;;;;;;4953360;28;20047;-63
2023/01/10 08:15:10;;;;;;;15.90;6.40;;;5.00;99.90;;;;;;4951541;28;20134;-62
2023/01/10 08:17:37;;;;;;;12.90;6.25;;;5.00;99.90;;;;;;4956524;28;20051;-63
2023/01/10 08:20:04;;;;;;;14.52;7.78;;;5.10;99.90;;;;;;4949073;28;20050;-62
2023/01/10 08:22:31;;;;;;;15.50;6.60;;;5.10;99.90;;;;;;4958577;28;20903;-63
2023/01/10 08:24:58;;;;;;;14.43;7.15;;;5.10;99.90;;;;;;4954407;28;20047;-64
2023/01/10 08:27:25;;;;;;;25.88;11.65;;;5.10;99.90;;;;;;4959034;28;20054;-63
2023/01/10 08:29:52;;;;;;;8.73;6.40;;;5.10;99.90;;;;;;4956040;28;20122;-62
2023/01/10 08:32:19;;;;;;;16.65;7.80;;;5.10;99.90;;;;;;4957349;28;20062;-65
2023/01/10 08:34:46;;;;;;;13.02;9.07;;;5.10;99.90;;;;;;4950376;28;20051;-64
2023/01/10 08:37:13;;;;;;;17.67;7.78;;;5.10;99.90;;;;;;4953714;28;20142;-62
2023/01/10 08:39:40;;;;;;;9.00;6.15;;;5.20;99.90;;;;;;4952692;28;20106;-64
2023/01/10 08:42:07;;;;;;;11.57;6.63;;;5.20;99.90;;;;;;4955385;28;20051;-64
2023/01/10 08:44:34;;;;;;;15.70;5.75;;;5.20;99.90;;;;;;4958112;28;20059;-62
2023/01/10 08:47:01;;;;;;;9.02;6.78;;;5.30;99.90;;;;;;4955044;28;20060;-64
2023/01/10 08:49:28;;;;;;;7.38;5.93;;;5.30;99.90;;;;;;4954312;28;20147;-70
2023/01/10 08:51:55;;;;;;;12.65;6.53;;;5.30;99.90;;;;;;4951526;28;20369;-63
2023/01/10 08:54:21;;;;;;;9.82;4.97;;;5.30;99.90;;;;;;4956628;28;20142;-63
2023/01/10 08:56:48;;;;;;;7.90;5.72;;;5.30;99.90;;;;;;4954600;28;20109;-64
2023/01/10 08:59:15;;;;;;;15.13;6.75;;;5.30;99.90;;;;;;4956810;28;20392;-62
2023/01/10 09:01:42;;;;;;;7.40;4.10;;;5.30;99.90;;;;;;4951804;28;20110;-63
2023/01/10 09:04:09;;;;;;;9.00;4.72;;;5.40;99.90;;;;;;4952279;28;20489;-65
2023/01/10 09:06:36;;;;;;;9.50;4.43;;;5.30;99.90;;;;;;4956960;28;20054;-62
2023/01/10 09:09:03;;;;;;;13.43;7.50;;;5.40;99.90;;;;;;4956102;28;20150;-65
2023/01/10 09:11:30;;;;;;;8.30;4.88;;;5.40;99.90;;;;;;4953261;28;20050;-64
2023/01/10 09:13:57;;;;;;;10.05;4.65;;;5.40;99.90;;;;;;4953896;28;20166;-63
2023/01/10 09:16:24;;;;;;;7.10;4.40;;;5.40;99.90;;;;;;4953364;28;20158;-63
2023/01/10 09:18:51;;;;;;;5.57;4.82;;;5.40;99.90;;;;;;4954597;28;20107;-62
2023/01/10 09:21:19;;;;;;;12.82;4.93;;;5.40;99.90;;;;;;4956617;28;20070;-64
2023/01/10 09:23:45;;;;;;;10.15;4.30;;;5.40;99.90;;;;;;4950924;28;20078;-62
2023/01/10 09:26:12;;;;;;;4.88;3.33;;;5.40;99.90;;;;;;4954264;28;20043;-62
2023/01/10 09:28:39;;;;;;;6.10;4.25;;;5.50;99.90;;;;;;4952607;28;20080;-68
2023/01/10 09:31:07;;;;;;;8.18;4.80;;;5.50;99.90;;;;;;4954810;28;20504;-62
2023/01/10 09:33:35;;;;;;;6.55;3.88;;;5.50;99.90;;;;;;4953362;28;20058;-66
2023/01/10 09:36:14;;;;;;;9.10;5.32;;;5.50;99.90;;;;;;4951597;28;20055;-64
2023/01/10 09:38:41;;;;;;;18.40;4.40;;;5.50;99.90;;;;;;4952500;28;20138;-65
2023/01/10 09:41:56;;;;;;;6.63;4.68;;;5.50;99.90;;;;;;4951132;28;20078;-63
2023/01/10 09:44:55;;;;;;;7.35;4.75;;;5.60;99.90;;;;;;4902497;29;20163;-62
2023/01/10 09:47:36;;;;;;;11.45;4.40;;;5.60;99.90;;;;;;4904716;29;20060;-65
2023/01/10 09:50:18;;;;;;;7.75;5.05;;;5.50;99.90;;;;;;4944929;28;20042;-63
2023/01/10 09:52:50;;;;;;;13.63;6.35;;;5.50;99.90;;;;;;4950121;28;20126;-63
2023/01/10 09:55:28;;;;;;;11.85;6.07;;;5.50;99.90;;;;;;4953949;28;20065;-65
2023/01/10 09:58:04;;;;;;;12.90;4.82;;;5.50;99.90;;;;;;4949406;28;20082;-69
2023/01/10 10:01:00;;;;;;;9.98;6.05;;;5.50;99.90;;;;;;4951242;28;20139;-64
2023/01/10 10:03:35;;;;;;;14.75;5.75;;;5.50;99.90;;;;;;4949952;28;20043;-63
2023/01/10 10:06:04;;;;;;;10.50;5.72;;;5.50;99.90;;;;;;4949142;28;20059;-65
2023/01/10 10:08:44;;;;;;;12.05;7.22;;;5.50;99.90;;;;;;4957023;28;20220;-68
2023/01/10 10:11:32;;;;;;;13.77;6.85;;;5.50;99.90;;;;;;4947943;28;20374;-68
2023/01/10 10:14:17;;;;;;;10.18;6.28;;;5.50;99.90;;;;;;4942073;28;20069;-66
2023/01/10 10:17:07;;;;;;;7.18;4.57;;;5.50;99.90;;;;;;4939488;28;20047;-65
2023/01/10 10:20:01;;;;;;;9.18;3.72;;;5.50;99.90;;;;;;4941770;28;20059;-62
2023/01/10 10:22:39;;;;;;;11.82;5.35;;;5.50;99.90;;;;;;4942997;28;20101;-71
2023/01/10 10:25:23;;;;;;;14.88;5.57;;;5.50;99.90;;;;;;4945174;28;20049;-64
2023/01/10 10:27:59;;;;;;;10.82;5.50;;;5.60;99.90;;;;;;4943176;28;20560;-66
2023/01/10 10:30:40;;;;;;;8.65;6.05;;;5.60;99.90;;;;;;4949603;28;20288;-62
2023/01/10 10:33:37;;;;;;;10.65;5.10;;;5.60;99.90;;;;;;4943786;28;20061;-62
2023/01/10 10:36:11;;;;;;;10.25;5.10;;;5.70;99.90;;;;;;4943419;28;20612;-66
2023/01/10 10:38:42;;;;;;;12.60;6.38;;;5.70;99.90;;;;;;4946531;28;20051;-62
2023/01/10 10:41:24;;;;;;;6.82;4.70;;;5.70;99.90;;;;;;4942987;28;20382;-69
2023/01/10 10:43:53;;;;;;;7.95;4.60;;;5.70;99.90;;;;;;4941994;28;20678;-68
2023/01/10 10:46:21;;;;;;;8.27;5.40;;;5.70;99.90;;;;;;4947946;28;20081;-63
2023/01/10 10:49:18;;;;;;;9.27;6.97;;;5.70;99.90;;;;;;4939070;28;20551;-66
2023/01/10 10:51:52;;;;;;;7.22;4.88;;;5.70;99.90;;;;;;4949734;28;20051;-62
2023/01/10 10:54:19;;;;;;;6.78;4.95;;;5.70;99.90;;;;;;4948152;28;20505;-67
2023/01/10 10:56:46;;;;;;;12.45;5.53;;;5.70;99.90;;;;;;4942974;28;20170;-63
2023/01/10 10:59:18;;;;;;;7.32;4.88;;;5.70;99.90;;;;;;4949681;28;20438;-64
2023/01/10 11:01:48;;;;;;;10.50;5.45;;;5.70;99.90;;;;;;4945461;28;20118;-63
2023/01/10 11:04:20;;;;;;;11.40;5.43;;;5.70;99.90;;;;;;4943591;28;20091;-64
2023/01/10 11:06:48;;;;;;;11.07;4.13;;;5.70;99.90;;;;;;4950339;28;20062;-68
2023/01/10 11:12:03;;;;;;;11.35;5.03;;;5.70;99.90;;;;;;4947343;28;20790;-66
2023/01/10 11:14:46;;;;;;;5.30;4.35;;;5.70;99.90;;;;;;4949941;28;20075;-67
2023/01/10 11:17:28;;;;;;;7.28;3.97;;;5.80;99.90;;;;;;4946728;28;20062;-64
2023/01/10 11:19:58;;;;;;;5.93;4.15;;;5.80;99.90;;;;;;4940542;28;20238;-64
2023/01/10 11:22:28;;;;;;;3.40;3.10;;;5.80;99.90;;;;;;4943789;28;20058;-65
2023/01/10 11:25:00;;;;;;;12.60;3.58;;;5.80;99.90;;;;;;4943973;28;20078;-63
2023/01/10 11:27:30;;;;;;;8.63;4.97;;;5.80;99.90;;;;;;4954687;28;20112;-63
2023/01/10 11:30:08;;;;;;;6.60;4.20;;;5.80;99.90;;;;;;4949478;28;20043;-63
2023/01/10 11:32:48;;;;;;;7.13;5.22;;;5.70;99.90;;;;;;4946906;28;20138;-64
2023/01/10 11:35:26;;;;;;;9.17;4.50;;;5.70;99.90;;;;;;4944282;28;20047;-63
2023/01/10 11:38:12;;;;;;;10.95;5.60;;;5.70;99.90;;;;;;4946153;28;20396;-70
2023/01/10 11:40:52;;;;;;;11.05;5.55;;;5.70;99.90;;;;;;4954922;28;20055;-65
2023/01/10 11:43:30;;;;;;;8.02;5.20;;;5.70;99.90;;;;;;4951901;28;20047;-62
2023/01/10 11:46:01;;;;;;;6.90;4.53;;;5.70;99.90;;;;;;4950901;28;20062;-63
2023/01/10 11:48:51;;;;;;;11.93;5.10;;;5.70;99.90;;;;;;4954522;28;20450;-63
2023/01/10 11:51:39;;;;;;;5.07;4.22;;;5.70;99.90;;;;;;4948177;28;20074;-64
2023/01/10 11:54:12;;;;;;;7.38;4.80;;;5.70;99.90;;;;;;4947421;28;20054;-63
2023/01/10 11:56:40;;;;;;;10.10;4.00;;;5.70;99.90;;;;;;4952344;28;20201;-63
2023/01/10 11:59:13;;;;;;;6.90;4.43;;;5.70;99.90;;;;;;4950244;28;20058;-63
2023/01/10 12:01:46;;;;;;;11.00;3.97;;;5.70;99.90;;;;;;4952382;28;20085;-65
2023/01/10 12:04:15;;;;;;;7.72;4.18;;;5.70;99.90;;;;;;4954980;28;20565;-66
2023/01/10 12:06:48;;;;;;;9.50;4.03;;;5.70;99.90;;;;;;4951846;28;20817;-66
2023/01/10 12:09:43;;;;;;;10.25;4.65;;;5.70;99.90;;;;;;4897886;28;20458;-69
2023/01/10 12:12:16;;;;;;;10.77;4.28;;;5.70;99.90;;;;;;4948601;28;20047;-64
2023/01/10 12:14:43;;;;;;;6.43;3.42;;;5.70;99.90;;;;;;4955975;28;20051;-64
2023/01/10 12:17:28;;;;;;;6.13;4.07;;;5.70;99.90;;;;;;4955939;28;20057;-64
2023/01/10 12:19:59;;;;;;;8.93;4.50;;;5.70;99.90;;;;;;4952225;28;20389;-64
2023/01/10 12:22:35;;;;;;;6.38;4.13;;;5.70;99.90;;;;;;4957214;28;20170;-63
2023/01/10 12:25:15;;;;;;;5.43;3.33;;;5.70;99.90;;;;;;4953839;28;20053;-63
2023/01/10 12:27:45;;;;;;;6.25;3.50;;;5.70;99.90;;;;;;4951150;28;20043;-66
2023/01/10 12:30:28;;;;;;;5.68;3.92;;;5.70;99.90;;;;;;4950081;28;20105;-64
2023/01/10 12:32:57;;;;;;;11.48;5.15;;;5.70;99.90;;;;;;4955513;28;20154;-66
2023/01/10 12:35:36;;;;;;;4.20;3.80;;;5.70;99.90;;;;;;4954530;28;20065;-62
2023/01/10 12:38:07;;;;;;;7.38;5.85;;;5.70;99.90;;;;;;4950452;28;20102;-64
2023/01/10 12:40:46;;;;;;;9.35;4.45;;;5.70;99.90;;;;;;4952481;28;20057;-63
2023/01/10 12:46:43;;;;;;;8.52;4.65;;;5.70;99.90;;;;;;4954396;28;20091;-63
2023/01/10 12:50:13;;;;;;;6.32;4.85;;;5.70;99.90;;;;;;4952834;28;20054;-64
2023/01/10 12:52:52;;;;;;;4.50;4.10;;;5.60;99.90;;;;;;4937985;28;20137;-68
2023/01/10 12:55:22;;;;;;;7.63;3.50;;;5.60;99.90;;;;;;4955267;28;20128;-62
2023/01/10 12:57:58;;;;;;;6.40;3.90;;;5.60;99.90;;;;;;4956060;28;20055;-65
2023/01/10 13:00:34;;;;;;;5.28;4.15;;;5.60;99.90;;;;;;4955429;28;20383;-66
2023/01/10 13:03:18;;;;;;;8.10;3.95;;;5.60;99.90;;;;;;4952567;28;20046;-63
2023/01/10 13:05:48;;;;;;;6.43;4.00;;;5.50;99.90;;;;;;4952911;28;20054;-69
2023/01/10 13:08:19;;;;;;;6.68;3.50;;;5.60;99.90;;;;;;4957755;28;20055;-65
2023/01/10 13:10:49;;;;;;;4.93;2.97;;;5.60;99.90;;;;;;4952325;28;20206;-66
2023/01/10 13:13:35;;;;;;;4.40;3.50;;;5.60;99.90;;;;;;4952934;28;20055;-65
2023/01/10 13:16:22;;;;;;;5.80;3.42;;;5.60;99.90;;;;;;4948542;28;20055;-63
2023/01/10 13:19:10;;;;;;;4.15;3.28;;;5.50;99.90;;;;;;4946676;28;20055;-64
2023/01/10 13:21:39;;;;;;;4.88;3.33;;;5.50;99.90;;;;;;4955074;28;20071;-62
2023/01/10 13:24:16;;;;;;;5.88;3.75;;;5.50;99.90;;;;;;4950004;28;20051;-67
2023/01/10 13:26:51;;;;;;;5.13;3.28;;;5.40;99.90;;;;;;4954927;28;20075;-64
2023/01/10 13:29:28;;;;;;;8.30;4.20;;;5.40;99.90;;;;;;4953249;28;20043;-63